createdAt,value
2023-04-15T00:07:35.524Z,75.24
2023-04-15T00:17:39.863Z,78.29
2023-04-15T00:27:44.255Z,79.76
2023-04-15T00:37:47.215Z,80.70
2023-04-15T00:47:52.390Z,81.16
2023-04-15T00:57:56.206Z,82.62
2023-04-15T01:08:00.659Z,82.85
2023-04-15T01:18:04.451Z,83.46
2023-04-15T01:28:09.564Z,84.47
2023-04-15T01:38:13.636Z,84.83
2023-04-15T01:48:18.026Z,85.90
2023-04-15T01:58:22.036Z,84.78
2023-04-15T02:08:27.088Z,86.68
2023-04-15T02:18:29.854Z,87.21
2023-04-15T02:28:34.286Z,87.83
2023-04-15T02:38:38.263Z,88.87
2023-04-15T02:48:42.870Z,89.91
2023-04-15T02:58:46.664Z,90.78
2023-04-15T03:08:51.402Z,91.38
2023-04-15T03:18:55.763Z,91.45
2023-04-15T03:29:01.732Z,93.20
2023-04-15T03:39:05.863Z,93.09
2023-04-15T03:49:10.212Z,95.48
2023-04-15T03:59:13.288Z,95.69
2023-04-15T04:09:17.863Z,96.79
2023-04-15T04:19:21.032Z,99.28
2023-04-15T04:29:25.595Z,99.77
2023-04-15T04:39:28.712Z,100.00
2023-04-15T04:49:33.051Z,100.00
2023-04-15T04:59:36.616Z,100.00
2023-04-15T05:09:41.229Z,100.00
2023-04-15T05:19:44.212Z,100.00
2023-04-15T05:29:48.580Z,100.00
2023-04-15T05:39:52.108Z,100.00
2023-04-15T05:49:57.002Z,100.00
2023-04-15T06:00:00.037Z,100.00
2023-04-15T06:10:04.905Z,100.00
2023-04-15T06:20:08.976Z,100.00
2023-04-15T06:30:14.190Z,98.59
2023-04-15T06:40:17.695Z,96.52
2023-04-15T06:50:22.158Z,94.45
2023-04-15T07:00:25.517Z,93.99
2023-04-15T07:10:38.785Z,92.60
2023-04-15T07:20:41.773Z,91.65
2023-04-15T07:30:53.181Z,90.13
2023-04-15T07:40:59.069Z,88.89
2023-04-15T07:51:10.945Z,84.19
2023-04-15T08:01:14.927Z,80.77
2023-04-15T08:11:26.256Z,80.80
2023-04-15T08:21:32.361Z,77.94
2023-04-15T08:31:43.585Z,78.14
2023-04-15T08:41:57.760Z,75.52
2023-04-15T08:52:02.822Z,70.38
2023-04-15T09:02:06.790Z,69.66
2023-04-15T09:12:17.017Z,63.64
2023-04-15T09:22:23.381Z,64.03
2023-04-15T09:32:31.416Z,64.58
2023-04-15T09:42:38.144Z,62.20
2023-04-15T09:52:48.900Z,61.31
2023-04-15T10:02:55.589Z,61.48
2023-04-15T10:13:10.515Z,60.85
2023-04-15T10:23:13.959Z,61.10
2023-04-15T10:33:23.367Z,58.94
2023-04-15T10:43:28.194Z,58.45
2023-04-15T10:53:40.062Z,58.14
2023-04-15T11:03:44.763Z,57.02
2023-04-15T11:13:54.317Z,55.15
2023-04-15T11:24:02.207Z,54.82
2023-04-15T11:34:11.441Z,56.00
2023-04-15T11:44:19.337Z,54.10
2023-04-15T11:54:27.494Z,56.98
2023-04-15T12:04:33.945Z,58.60
2023-04-15T12:14:43.262Z,56.04
2023-04-15T12:24:57.434Z,57.91
2023-04-15T12:35:01.828Z,56.56
2023-04-15T12:45:07.882Z,55.07
2023-04-15T12:55:15.765Z,55.42
2023-04-15T13:05:22.652Z,53.55
2023-04-15T13:15:34.714Z,54.79
2023-04-15T13:25:41.203Z,54.00
2023-04-15T13:35:49.008Z,56.20
2023-04-15T13:45:56.660Z,56.85
2023-04-15T13:56:05.255Z,55.57
2023-04-15T14:06:14.620Z,57.32
2023-04-15T14:16:23.303Z,56.53
2023-04-15T14:26:29.921Z,56.40
2023-04-15T14:36:41.775Z,55.27
2023-04-15T14:46:48.109Z,54.47
2023-04-15T14:56:55.905Z,55.54
2023-04-15T15:07:02.289Z,56.95
2023-04-15T15:17:13.122Z,58.57
2023-04-15T15:27:20.427Z,58.71
2023-04-15T15:37:31.688Z,58.72
2023-04-15T15:47:35.350Z,60.35
2023-04-15T15:57:46.541Z,61.51
2023-04-15T16:07:52.576Z,64.95
2023-04-15T16:18:03.283Z,68.52
2023-04-15T16:28:22.668Z,69.50
2023-04-15T16:38:29.847Z,69.16
2023-04-15T16:48:32.921Z,71.73
2023-04-15T16:58:37.303Z,72.33
2023-04-15T17:08:42.236Z,74.58
2023-04-15T17:18:53.214Z,74.94
2023-04-15T17:28:58.446Z,76.82
2023-04-15T17:39:11.962Z,79.45
2023-04-15T17:49:15.423Z,78.16
2023-04-15T17:59:26.346Z,78.83
2023-04-15T18:09:32.315Z,80.53
2023-04-15T18:19:55.187Z,82.49
2023-04-15T18:29:58.389Z,82.82
2023-04-15T18:40:02.895Z,83.73
2023-04-15T18:50:06.631Z,85.34
2023-04-15T19:00:12.715Z,85.51
2023-04-15T19:10:15.788Z,84.01
2023-04-15T19:20:20.258Z,84.46
2023-04-15T19:30:23.365Z,87.26
2023-04-15T19:40:27.767Z,87.65
2023-04-15T19:50:30.803Z,88.10
2023-04-15T20:00:35.351Z,89.17
2023-04-15T20:10:38.854Z,89.75
2023-04-15T20:20:43.294Z,89.85
2023-04-15T20:30:47.196Z,91.73
2023-04-15T20:40:51.571Z,91.96
2023-04-15T20:50:54.566Z,92.58
2023-04-15T21:00:59.701Z,92.19
2023-04-15T21:11:02.783Z,92.98
2023-04-15T21:21:07.334Z,94.00
2023-04-15T21:31:10.314Z,95.00
2023-04-15T21:41:14.658Z,97.57
2023-04-15T21:51:17.679Z,100.00
2023-04-15T22:01:22.086Z,100.00
2023-04-15T22:11:28.240Z,100.00
2023-04-15T22:21:33.002Z,100.00
2023-04-15T22:31:36.085Z,100.00
2023-04-15T22:41:40.492Z,100.00
2023-04-15T22:51:44.937Z,100.00
2023-04-15T23:01:49.398Z,100.00
2023-04-15T23:11:52.515Z,100.00
2023-04-15T23:21:56.946Z,100.00
2023-04-15T23:32:00.302Z,100.00
2023-04-15T23:42:04.845Z,100.00
2023-04-15T23:52:08.034Z,100.00
